createdAt,value
2017-08-06T00:02:04.403Z,18.20
2017-08-06T00:04:32.488Z,18.20
2017-08-06T00:07:00.576Z,18.30
2017-08-06T00:09:28.654Z,18.30
2017-08-06T00:11:56.720Z,18.30
2017-08-06T00:14:24.796Z,18.20
2017-08-06T00:16:52.862Z,18.20
2017-08-06T00:19:20.930Z,18.20
2017-08-06T00:21:49.026Z,18.10
2017-08-06T00:24:17.855Z,18.20
2017-08-06T00:26:45.935Z,18.10
2017-08-06T00:29:14.010Z,18.20
2017-08-06T00:31:42.087Z,18.20
2017-08-06T00:34:10.174Z,18.30
2017-08-06T00:36:38.278Z,18.30
2017-08-06T00:39:07.090Z,18.20
2017-08-06T00:41:35.187Z,18.10
2017-08-06T00:44:03.255Z,18.10
2017-08-06T00:46:31.335Z,18.10
2017-08-06T00:48:59.398Z,18.10
2017-08-06T00:51:27.455Z,18.10
2017-08-06T00:53:55.526Z,18.10
2017-08-06T00:56:23.588Z,18.10
2017-08-06T00:58:51.671Z,18.10
2017-08-06T01:01:19.749Z,18.00
2017-08-06T01:03:47.831Z,18.10
2017-08-06T01:06:15.895Z,18.10
2017-08-06T01:08:43.947Z,18.10
2017-08-06T01:11:12.025Z,18.10
2017-08-06T01:13:40.087Z,18.10
2017-08-06T01:16:08.171Z,18.10
2017-08-06T01:18:36.231Z,18.00
2017-08-06T01:21:04.292Z,18.00
2017-08-06T01:23:32.374Z,18.00
2017-08-06T01:26:00.468Z,18.00
2017-08-06T01:28:28.522Z,18.00
2017-08-06T01:30:56.586Z,18.10
2017-08-06T01:33:24.679Z,18.10
2017-08-06T01:35:52.751Z,18.00
2017-08-06T01:38:20.795Z,18.00
2017-08-06T01:40:48.878Z,17.90
2017-08-06T01:43:16.961Z,17.90
2017-08-06T01:45:45.051Z,17.80
2017-08-06T01:48:13.896Z,17.80
2017-08-06T01:50:41.945Z,17.70
2017-08-06T01:53:10.040Z,17.80
2017-08-06T01:55:38.096Z,17.90
2017-08-06T01:58:06.170Z,17.80
2017-08-06T02:00:34.491Z,17.80
2017-08-06T02:03:02.587Z,17.80
2017-08-06T02:05:30.672Z,17.90
2017-08-06T02:07:58.730Z,17.90
2017-08-06T02:10:26.827Z,17.90
2017-08-06T02:12:54.904Z,17.90
2017-08-06T02:15:22.971Z,17.90
2017-08-06T02:17:51.030Z,17.80
2017-08-06T02:20:19.111Z,17.80
2017-08-06T02:22:47.179Z,17.70
2017-08-06T02:25:15.250Z,17.60
2017-08-06T02:27:43.323Z,17.60
2017-08-06T02:30:11.383Z,17.60
2017-08-06T02:32:39.443Z,17.50
2017-08-06T02:35:07.543Z,17.40
2017-08-06T02:37:35.582Z,17.30
2017-08-06T02:40:03.651Z,17.30
2017-08-06T02:42:31.731Z,17.20
2017-08-06T02:44:59.800Z,17.00
2017-08-06T02:47:27.872Z,16.90
2017-08-06T02:49:55.988Z,16.80
2017-08-06T02:52:24.803Z,16.80
2017-08-06T02:54:52.877Z,16.80
2017-08-06T02:57:20.954Z,16.90
2017-08-06T02:59:49.071Z,16.90
2017-08-06T03:02:17.135Z,17.00
2017-08-06T03:04:45.208Z,17.00
2017-08-06T03:07:13.298Z,17.00
2017-08-06T03:09:41.358Z,17.00
2017-08-06T03:12:09.427Z,17.00
2017-08-06T03:14:37.512Z,17.00
2017-08-06T03:17:05.579Z,17.00
2017-08-06T03:19:33.655Z,16.90
2017-08-06T03:22:01.731Z,16.90
2017-08-06T03:24:29.811Z,16.90
2017-08-06T03:26:57.902Z,16.90
2017-08-06T03:29:25.975Z,16.80
2017-08-06T03:31:54.034Z,16.80
2017-08-06T03:34:22.113Z,16.70
2017-08-06T03:36:50.193Z,16.70
2017-08-06T03:39:18.271Z,16.70
2017-08-06T03:41:47.103Z,16.60
2017-08-06T03:44:15.179Z,16.50
2017-08-06T03:46:43.245Z,16.50
2017-08-06T03:49:11.315Z,16.50
2017-08-06T03:51:39.414Z,16.50
2017-08-06T03:54:07.474Z,16.40
2017-08-06T03:56:35.551Z,16.30
2017-08-06T03:59:03.616Z,16.30
2017-08-06T04:01:31.698Z,16.20
2017-08-06T04:03:59.762Z,16.20
2017-08-06T04:06:27.827Z,16.20
2017-08-06T04:08:55.900Z,16.30
2017-08-06T04:11:23.963Z,16.30
2017-08-06T04:13:52.018Z,16.30
2017-08-06T04:16:20.094Z,16.30
2017-08-06T04:18:48.168Z,16.30
2017-08-06T04:21:16.260Z,16.30
2017-08-06T04:23:44.334Z,16.30
2017-08-06T04:26:13.162Z,16.30
2017-08-06T04:28:41.235Z,16.30
2017-08-06T04:31:09.308Z,16.30
2017-08-06T04:33:37.390Z,16.30
2017-08-06T04:36:05.469Z,16.30
2017-08-06T04:38:33.538Z,16.30
2017-08-06T04:41:01.593Z,16.40
2017-08-06T04:43:29.687Z,16.40
2017-08-06T04:45:57.748Z,16.50
2017-08-06T04:48:25.814Z,16.50
2017-08-06T04:50:53.886Z,16.50
2017-08-06T04:53:21.954Z,16.40
2017-08-06T04:55:50.027Z,16.40
2017-08-06T04:58:18.103Z,16.40
2017-08-06T05:00:46.196Z,16.40
2017-08-06T05:03:14.283Z,16.50
2017-08-06T05:05:42.351Z,16.50
2017-08-06T05:08:11.200Z,16.50
2017-08-06T05:10:39.257Z,16.50
2017-08-06T05:13:07.355Z,16.50
2017-08-06T05:15:35.407Z,16.60
2017-08-06T05:18:03.463Z,16.60
2017-08-06T05:20:31.542Z,16.60
2017-08-06T05:22:59.595Z,16.60
2017-08-06T05:25:27.684Z,16.60
2017-08-06T05:27:55.739Z,16.50
2017-08-06T05:30:23.835Z,16.10
2017-08-06T05:32:51.906Z,15.90
2017-08-06T05:35:19.984Z,15.90
2017-08-06T05:37:48.063Z,15.90
2017-08-06T05:40:16.134Z,15.90
2017-08-06T05:42:44.221Z,16.00
2017-08-06T05:45:12.304Z,16.10
2017-08-06T05:47:41.145Z,16.20
2017-08-06T05:50:09.212Z,16.10
2017-08-06T05:52:37.289Z,16.30
2017-08-06T05:55:05.365Z,16.30
2017-08-06T05:57:33.430Z,16.30
2017-08-06T06:00:01.536Z,16.30
2017-08-06T06:02:29.603Z,16.20
2017-08-06T06:04:57.674Z,16.20
2017-08-06T06:07:25.759Z,16.30
2017-08-06T06:09:53.812Z,16.20
2017-08-06T06:12:22.651Z,16.10
2017-08-06T06:14:50.723Z,16.00
2017-08-06T06:17:18.789Z,16.10
2017-08-06T06:19:46.883Z,16.20
2017-08-06T06:22:14.947Z,16.10
2017-08-06T06:24:43.027Z,16.00
2017-08-06T06:27:11.100Z,16.00
2017-08-06T06:29:39.160Z,16.10
2017-08-06T06:32:07.246Z,16.20
2017-08-06T06:34:35.316Z,16.10
2017-08-06T06:37:03.477Z,16.00
2017-08-06T06:39:31.527Z,16.00
2017-08-06T06:41:59.603Z,16.20
2017-08-06T06:44:27.677Z,16.40
2017-08-06T06:46:55.747Z,16.60
2017-08-06T06:49:23.827Z,16.60
2017-08-06T06:51:51.891Z,16.60
2017-08-06T06:54:19.960Z,16.70
2017-08-06T06:56:48.063Z,16.90
2017-08-06T06:59:16.150Z,17.10
2017-08-06T07:01:44.979Z,16.80
2017-08-06T07:04:13.067Z,16.70
2017-08-06T07:06:41.140Z,16.80
2017-08-06T07:09:09.232Z,16.80
2017-08-06T07:11:37.310Z,16.90
2017-08-06T07:14:05.385Z,17.10
2017-08-06T07:16:33.474Z,17.10
2017-08-06T07:19:01.539Z,17.00
2017-08-06T07:21:29.620Z,17.20
2017-08-06T07:23:57.691Z,17.30
2017-08-06T07:26:25.770Z,17.20
2017-08-06T07:28:53.822Z,17.20
2017-08-06T07:31:21.957Z,17.30
2017-08-06T07:33:50.791Z,17.40
2017-08-06T07:36:18.857Z,17.40
2017-08-06T07:38:46.943Z,17.50
2017-08-06T07:41:15.835Z,17.70
2017-08-06T07:43:44.671Z,17.60
2017-08-06T07:46:12.743Z,17.60
2017-08-06T07:48:40.860Z,17.80
2017-08-06T07:51:08.947Z,17.90
2017-08-06T07:53:37.782Z,18.10
2017-08-06T07:56:05.870Z,18.00
2017-08-06T07:58:33.943Z,18.20
2017-08-06T08:01:02.036Z,18.40
2017-08-06T08:03:30.113Z,18.60
2017-08-06T08:05:58.189Z,18.70
2017-08-06T08:08:26.245Z,18.70
2017-08-06T08:10:54.335Z,18.60
2017-08-06T08:13:22.410Z,18.80
2017-08-06T08:15:50.516Z,18.90
2017-08-06T08:18:19.367Z,19.00
2017-08-06T08:20:47.629Z,19.00
2017-08-06T08:23:15.914Z,19.00
2017-08-06T08:25:44.198Z,19.00
2017-08-06T08:28:12.566Z,19.00
2017-08-06T08:30:40.648Z,18.90
2017-08-06T08:33:09.304Z,19.10
2017-08-06T08:35:37.523Z,19.40
2017-08-06T08:38:05.690Z,19.70
2017-08-06T08:40:34.874Z,19.90
2017-08-06T08:43:03.190Z,20.00
2017-08-06T08:45:36.345Z,20.30
2017-08-06T08:48:16.556Z,20.30
2017-08-06T09:22:22.094Z,21.30
2017-08-06T09:24:50.884Z,21.30
2017-08-06T09:27:21.054Z,21.70
2017-08-06T09:29:50.207Z,23.00
2017-08-06T09:32:18.468Z,22.90
2017-08-06T09:34:51.563Z,27.00
2017-08-06T09:53:35.238Z,26.90
2017-08-06T09:56:03.439Z,32.60
2017-08-06T09:58:31.688Z,32.70
2017-08-06T10:12:58.627Z,32.00
2017-08-06T10:15:29.481Z,31.90
2017-08-06T10:17:57.873Z,32.00
2017-08-06T10:20:26.098Z,32.90
2017-08-06T10:22:54.301Z,33.70
2017-08-06T10:28:35.304Z,35.40
2017-08-06T10:34:08.412Z,35.80
2017-08-06T10:36:42.858Z,36.50
2017-08-06T10:39:13.796Z,37.90
2017-08-06T11:01:26.396Z,38.00
2017-08-06T11:04:01.607Z,40.10
2017-08-06T11:25:41.190Z,40.60
2017-08-06T11:28:11.372Z,41.30
2017-08-06T11:30:41.189Z,41.40
2017-08-06T11:33:11.852Z,38.90
2017-08-06T11:35:40.859Z,36.70
2017-08-06T11:38:09.124Z,37.30
2017-08-06T11:52:59.895Z,35.10
2017-08-06T11:55:30.738Z,33.80
2017-08-06T12:13:49.547Z,26.60
2017-08-06T12:19:15.724Z,25.10
2017-08-06T12:21:46.918Z,24.90
2017-08-06T12:24:16.286Z,24.70
2017-08-06T12:26:44.577Z,24.70
2017-08-06T12:29:13.036Z,24.40
2017-08-06T12:43:34.464Z,24.70
2017-08-06T12:46:03.095Z,24.70
2017-08-06T13:07:36.927Z,24.60
2017-08-06T13:10:07.762Z,24.50
2017-08-06T13:12:36.346Z,24.40
2017-08-06T13:15:04.680Z,24.70
2017-08-06T13:17:33.000Z,24.70
2017-08-06T13:20:06.483Z,24.60
2017-08-06T13:25:43.782Z,24.30
2017-08-06T13:28:34.484Z,24.20
2017-08-06T13:31:22.458Z,24.40
2017-08-06T13:33:55.025Z,24.30
2017-08-06T13:36:24.707Z,24.10
2017-08-06T13:38:53.593Z,24.30
2017-08-06T13:41:22.557Z,24.20
2017-08-06T13:43:51.714Z,24.10
2017-08-06T13:52:23.574Z,24.70
2017-08-06T14:10:30.243Z,25.40
2017-08-06T14:13:02.832Z,25.30
2017-08-06T14:15:31.564Z,25.50
2017-08-06T14:18:09.916Z,25.60
2017-08-06T14:20:51.242Z,25.60
2017-08-06T14:23:21.106Z,25.80
2017-08-06T14:25:52.071Z,25.70
2017-08-06T14:28:20.458Z,25.60
2017-08-06T14:30:49.496Z,25.30
2017-08-06T14:33:17.708Z,25.30
2017-08-06T14:35:56.715Z,25.10
2017-08-06T14:51:26.305Z,24.90
2017-08-06T14:53:55.271Z,24.70
2017-08-06T14:56:23.567Z,24.80
2017-08-06T14:58:51.772Z,24.90
2017-08-06T15:01:23.815Z,24.80
2017-08-06T15:16:52.272Z,24.80
2017-08-06T15:19:20.746Z,24.90
2017-08-06T15:21:50.652Z,25.00
2017-08-06T15:24:18.802Z,25.10
2017-08-06T15:32:57.691Z,24.60
2017-08-06T15:48:25.950Z,24.50
2017-08-06T15:51:01.334Z,24.30
2017-08-06T16:03:17.049Z,24.70
2017-08-06T16:05:45.943Z,24.60
2017-08-06T16:08:24.812Z,24.50
2017-08-06T16:10:52.930Z,24.40
2017-08-06T16:13:20.998Z,24.20
2017-08-06T16:15:49.064Z,24.10
2017-08-06T16:18:17.150Z,24.10
2017-08-06T16:20:45.223Z,24.00
2017-08-06T16:23:13.291Z,23.90
2017-08-06T16:25:41.372Z,23.70
2017-08-06T16:28:09.428Z,23.50
2017-08-06T16:30:37.502Z,23.40
2017-08-06T16:33:05.554Z,23.40
2017-08-06T16:35:33.622Z,23.30
2017-08-06T16:38:01.725Z,23.20
2017-08-06T16:40:29.786Z,23.00
2017-08-06T16:42:57.890Z,22.90
2017-08-06T16:45:25.958Z,23.10
2017-08-06T16:47:54.040Z,23.20
2017-08-06T16:50:22.109Z,23.40
2017-08-06T16:52:50.169Z,23.50
2017-08-06T16:55:18.904Z,23.60
2017-08-06T16:57:47.025Z,23.60
2017-08-06T17:00:15.129Z,23.70
2017-08-06T17:02:43.946Z,24.00
2017-08-06T17:05:12.047Z,23.90
2017-08-06T17:07:40.115Z,24.10
2017-08-06T17:10:08.190Z,24.10
2017-08-06T17:12:36.255Z,24.10
2017-08-06T17:15:04.310Z,24.10
2017-08-06T17:17:33.161Z,23.70
2017-08-06T17:20:01.246Z,23.70
2017-08-06T17:22:29.306Z,23.60
2017-08-06T17:24:57.397Z,23.60
2017-08-06T17:27:25.469Z,23.40
2017-08-06T17:29:53.543Z,23.30
2017-08-06T17:32:22.386Z,23.30
2017-08-06T17:34:50.508Z,23.30
2017-08-06T17:37:19.341Z,23.20
2017-08-06T17:39:47.416Z,23.20
2017-08-06T17:42:15.504Z,23.10
2017-08-06T17:44:43.561Z,23.00
2017-08-06T17:47:11.652Z,23.10
2017-08-06T17:49:39.726Z,23.20
2017-08-06T17:52:07.811Z,23.10
2017-08-06T17:54:35.904Z,23.20
2017-08-06T17:57:03.987Z,23.20
2017-08-06T17:59:32.110Z,23.30
2017-08-06T18:02:00.183Z,23.20
2017-08-06T18:04:28.258Z,23.10
2017-08-06T18:06:56.345Z,23.10
2017-08-06T18:09:24.439Z,23.10
2017-08-06T18:11:53.310Z,23.10
2017-08-06T18:14:22.138Z,22.90
2017-08-06T18:16:50.585Z,22.70
2017-08-06T18:19:18.656Z,22.60
2017-08-06T18:21:47.485Z,22.50
2017-08-06T18:24:15.949Z,22.40
2017-08-06T18:26:44.775Z,22.40
2017-08-06T18:29:12.883Z,22.40
2017-08-06T18:31:41.713Z,22.40
2017-08-06T18:34:09.817Z,22.30
2017-08-06T18:36:37.859Z,22.30
2017-08-06T18:39:05.963Z,22.20
2017-08-06T18:41:34.046Z,22.20
2017-08-06T18:44:02.116Z,22.10
2017-08-06T18:46:30.985Z,22.00
2017-08-06T18:48:59.099Z,21.90
2017-08-06T18:51:27.138Z,21.90
2017-08-06T18:53:55.226Z,21.90
2017-08-06T18:56:24.098Z,21.80
2017-08-06T18:58:52.181Z,21.70
2017-08-06T19:01:20.251Z,21.70
2017-08-06T19:03:48.342Z,21.70
2017-08-06T19:06:17.216Z,21.50
2017-08-06T19:08:45.279Z,21.50
2017-08-06T19:11:13.354Z,21.50
2017-08-06T19:13:41.447Z,21.40
2017-08-06T19:16:09.493Z,21.40
2017-08-06T19:18:37.587Z,21.30
2017-08-06T19:21:06.446Z,21.10
2017-08-06T19:23:34.487Z,21.00
2017-08-06T19:26:02.593Z,21.00
2017-08-06T19:28:30.677Z,20.90
2017-08-06T19:30:59.511Z,20.70
2017-08-06T19:33:27.586Z,20.70
2017-08-06T19:35:55.755Z,20.70
2017-08-06T19:38:23.829Z,20.60
2017-08-06T19:40:51.908Z,20.60
2017-08-06T19:43:19.966Z,20.60
2017-08-06T19:45:48.329Z,20.60
2017-08-06T19:48:16.408Z,20.50
2017-08-06T19:50:44.487Z,20.50
2017-08-06T19:53:12.559Z,20.40
2017-08-06T19:55:40.617Z,20.40
2017-08-06T19:58:08.705Z,20.40
2017-08-06T20:00:36.754Z,20.30
2017-08-06T20:03:04.836Z,20.30
2017-08-06T20:05:32.905Z,20.30
2017-08-06T20:08:00.982Z,20.30
2017-08-06T20:10:29.142Z,20.20
2017-08-06T20:12:57.964Z,20.20
2017-08-06T20:15:26.027Z,20.10
2017-08-06T20:17:54.123Z,20.10
2017-08-06T20:20:22.197Z,20.10
2017-08-06T20:22:50.306Z,20.10
2017-08-06T20:25:18.384Z,20.00
2017-08-06T20:27:46.421Z,20.00
2017-08-06T20:30:15.270Z,19.90
2017-08-06T20:32:43.370Z,19.80
2017-08-06T20:35:11.452Z,19.80
2017-08-06T20:37:39.525Z,19.80
2017-08-06T20:40:08.366Z,19.70
2017-08-06T20:42:36.458Z,19.70
2017-08-06T20:45:04.510Z,19.70
2017-08-06T20:47:32.594Z,19.70
2017-08-06T20:50:00.655Z,19.60
2017-08-06T20:52:28.760Z,19.60
2017-08-06T20:54:56.836Z,19.60
2017-08-06T20:57:24.901Z,19.50
2017-08-06T20:59:53.036Z,19.50
2017-08-06T21:02:21.134Z,19.40
2017-08-06T21:04:49.193Z,19.40
2017-08-06T21:07:17.247Z,19.40
2017-08-06T21:09:45.301Z,19.30
2017-08-06T21:12:13.449Z,19.30
2017-08-06T21:14:41.495Z,19.30
2017-08-06T21:17:09.551Z,19.30
2017-08-06T21:19:38.415Z,19.20
2017-08-06T21:22:06.795Z,19.10
2017-08-06T21:24:34.863Z,19.20
2017-08-06T21:27:03.193Z,19.10
2017-08-06T21:29:31.282Z,19.10
2017-08-06T21:31:59.838Z,19.10
2017-08-06T21:34:27.920Z,19.10
2017-08-06T21:36:56.000Z,19.00
2017-08-06T21:39:24.067Z,19.00
2017-08-06T21:41:52.222Z,18.90
2017-08-06T21:44:21.024Z,18.90
2017-08-06T21:46:49.083Z,18.90
2017-08-06T21:49:17.152Z,18.90
2017-08-06T21:51:45.234Z,18.80
2017-08-06T21:54:13.333Z,18.70
2017-08-06T21:56:41.370Z,18.70
2017-08-06T21:59:09.456Z,18.70
2017-08-06T22:01:37.533Z,18.60
2017-08-06T22:04:05.602Z,18.60
2017-08-06T22:06:33.678Z,18.60
2017-08-06T22:09:01.735Z,18.60
2017-08-06T22:11:29.803Z,18.60
2017-08-06T22:13:57.881Z,18.60
2017-08-06T22:16:25.947Z,18.50
2017-08-06T22:18:54.023Z,18.40
2017-08-06T22:21:22.843Z,18.30
2017-08-06T22:23:50.903Z,18.30
2017-08-06T22:26:18.971Z,18.30
2017-08-06T22:28:47.038Z,18.20
2017-08-06T22:31:15.118Z,18.10
2017-08-06T22:33:43.182Z,18.10
2017-08-06T22:36:11.266Z,18.10
2017-08-06T22:38:39.350Z,18.10
2017-08-06T22:41:07.430Z,18.10
2017-08-06T22:43:35.482Z,18.10
2017-08-06T22:46:03.551Z,18.10
2017-08-06T22:48:31.625Z,18.00
2017-08-06T22:50:59.684Z,18.00
2017-08-06T22:53:27.766Z,18.00
2017-08-06T22:55:55.888Z,18.00
2017-08-06T22:58:23.932Z,18.00
2017-08-06T23:00:52.015Z,18.10
2017-08-06T23:03:20.064Z,18.00
2017-08-06T23:05:48.143Z,18.10
2017-08-06T23:08:16.202Z,18.00
2017-08-06T23:10:44.258Z,18.00
2017-08-06T23:13:12.336Z,18.00
2017-08-06T23:15:40.391Z,18.00
2017-08-06T23:18:08.453Z,18.00
2017-08-06T23:20:36.539Z,18.00
2017-08-06T23:23:04.598Z,18.00
2017-08-06T23:25:32.687Z,18.00
2017-08-06T23:28:00.739Z,18.00
2017-08-06T23:30:28.799Z,17.90
2017-08-06T23:32:56.844Z,17.90
2017-08-06T23:35:24.903Z,17.90
2017-08-06T23:37:53.742Z,17.90
2017-08-06T23:40:21.814Z,17.80
2017-08-06T23:42:49.882Z,17.80
2017-08-06T23:45:17.946Z,17.70
2017-08-06T23:47:46.007Z,17.70
2017-08-06T23:50:14.068Z,17.60
2017-08-06T23:52:42.119Z,17.60
2017-08-06T23:55:10.942Z,17.60
2017-08-06T23:57:39.019Z,17.50
